Time;durP1;ratioP1;P1;durP2;ratioP2;P2;SDS_P1;SDS_P2;PMS_P1;PMS_P2;Temp;Humidity;BMP_temperature;BMP_pressure;BME280_temperature;BME280_humidity;BME280_pressure;Samples;Min_cycle;Max_cycle;Signal;HPM_P1;HPM_P2
2023/05/05 00:00:55;;;;;;;3.38;2.90;;;15.30;99.90;;;;;;5033365;28;20445;-40
2023/05/05 00:03:22;;;;;;;4.20;3.20;;;15.30;99.90;;;;;;5033326;28;20176;-41
2023/05/05 00:05:49;;;;;;;5.85;3.20;;;15.30;99.90;;;;;;5032710;28;20386;-42
2023/05/05 00:08:15;;;;;;;3.30;2.70;;;15.30;99.90;;;;;;5033527;28;20047;-41
2023/05/05 00:10:44;;;;;;;5.18;2.90;;;15.30;99.90;;;;;;5033147;28;20406;-40
2023/05/05 00:13:10;;;;;;;6.38;3.15;;;15.30;99.90;;;;;;5033110;28;20029;-41
2023/05/05 00:15:36;;;;;;;3.50;2.83;;;15.20;99.90;;;;;;5032989;28;20395;-39
2023/05/05 00:18:01;;;;;;;3.47;2.50;;;15.20;99.90;;;;;;5032731;28;20034;-40
2023/05/05 00:20:27;;;;;;;5.63;3.10;;;15.20;99.90;;;;;;5033064;28;20026;-40
2023/05/05 00:22:52;;;;;;;3.95;2.53;;;15.20;99.90;;;;;;5032907;28;20033;-41
2023/05/05 00:25:18;;;;;;;4.03;3.00;;;15.20;99.90;;;;;;5032845;28;20068;-41
2023/05/05 00:27:44;;;;;;;4.40;2.90;;;15.20;99.90;;;;;;5032260;28;20029;-40
2023/05/05 00:30:09;;;;;;;4.38;3.35;;;15.20;99.90;;;;;;5032884;28;20525;-41
2023/05/05 00:32:35;;;;;;;4.03;3.05;;;15.20;99.90;;;;;;5032796;28;20037;-40
2023/05/05 00:35:01;;;;;;;4.43;3.20;;;15.20;99.90;;;;;;5032510;28;20063;-42
2023/05/05 00:37:27;;;;;;;4.72;3.13;;;15.20;99.90;;;;;;5032129;28;20083;-40
2023/05/05 00:39:52;;;;;;;4.95;3.10;;;15.20;99.90;;;;;;5032663;28;20522;-42
2023/05/05 00:42:18;;;;;;;3.90;3.22;;;15.20;99.90;;;;;;5032813;28;20030;-40
2023/05/05 00:44:44;;;;;;;4.38;3.03;;;15.20;99.90;;;;;;5032435;28;20483;-39
2023/05/05 00:47:11;;;;;;;4.28;3.15;;;15.20;99.90;;;;;;5031831;28;20022;-41
2023/05/05 00:49:38;;;;;;;3.83;2.90;;;15.20;99.90;;;;;;5032372;28;20022;-40
2023/05/05 00:52:06;;;;;;;3.33;3.03;;;15.20;99.90;;;;;;5032383;28;20033;-40
2023/05/05 00:54:33;;;;;;;4.47;3.20;;;15.20;99.90;;;;;;5032241;28;20033;-40
2023/05/05 00:57:00;;;;;;;6.10;3.10;;;15.20;99.90;;;;;;5031806;28;20029;-41
2023/05/05 00:59:30;;;;;;;3.88;3.22;;;15.20;99.90;;;;;;5032177;28;20045;-40
2023/05/05 01:01:56;;;;;;;3.47;2.80;;;15.20;99.90;;;;;;5032173;28;20040;-39
2023/05/05 01:04:21;;;;;;;3.33;2.83;;;15.20;99.90;;;;;;5032138;28;20025;-40
2023/05/05 01:06:52;;;;;;;6.35;2.80;;;15.10;99.90;;;;;;5031468;28;20030;-39
2023/05/05 01:09:43;;;;;;;4.40;2.83;;;15.10;99.90;;;;;;5032037;28;20018;-39
2023/05/05 01:12:18;;;;;;;4.95;3.10;;;15.10;99.90;;;;;;5031993;28;20029;-40
2023/05/05 01:14:53;;;;;;;4.30;3.30;;;15.10;99.90;;;;;;5031941;28;20021;-39
2023/05/05 01:17:23;;;;;;;6.68;3.50;;;15.10;99.90;;;;;;5031427;28;20041;-40
2023/05/05 01:19:57;;;;;;;3.92;3.05;;;15.10;99.90;;;;;;5032139;28;20026;-40
2023/05/05 01:22:32;;;;;;;4.50;2.53;;;15.10;99.90;;;;;;5031872;28;20034;-41
2023/05/05 01:25:10;;;;;;;4.88;3.28;;;15.10;99.90;;;;;;5031798;28;20071;-40
2023/05/05 01:28:09;;;;;;;4.50;3.10;;;15.10;99.90;;;;;;5031164;28;20482;-41
2023/05/05 01:30:53;;;;;;;3.67;3.03;;;15.10;99.90;;;;;;5031645;28;20032;-39
2023/05/05 01:33:24;;;;;;;3.75;2.85;;;15.00;99.90;;;;;;5031763;28;20021;-41
2023/05/05 01:35:54;;;;;;;5.00;3.05;;;15.10;99.90;;;;;;5031644;28;20320;-41
2023/05/05 01:38:39;;;;;;;3.33;3.03;;;15.10;99.90;;;;;;5031410;28;20537;-40
2023/05/05 01:41:20;;;;;;;5.43;3.10;;;15.10;99.90;;;;;;5031472;28;20029;-41
2023/05/05 01:43:49;;;;;;;3.47;2.90;;;15.10;99.90;;;;;;5031412;28;20033;-40
2023/05/05 01:46:16;;;;;;;5.93;3.13;;;15.10;99.90;;;;;;5030754;28;20458;-40
2023/05/05 01:48:44;;;;;;;3.65;2.95;;;15.10;99.90;;;;;;5031324;28;20100;-40
2023/05/05 01:51:11;;;;;;;3.58;3.15;;;15.10;99.90;;;;;;5031504;28;20052;-41
2023/05/05 01:53:38;;;;;;;3.25;2.50;;;15.00;99.90;;;;;;5030747;28;20021;-40
2023/05/05 01:56:04;;;;;;;4.35;3.05;;;15.10;99.90;;;;;;5031069;28;20031;-40
2023/05/05 01:58:32;;;;;;;3.83;3.10;;;15.10;99.90;;;;;;5031222;28;20026;-40
2023/05/05 02:00:59;;;;;;;3.72;2.92;;;15.10;99.90;;;;;;5031099;28;20490;-41
2023/05/05 02:03:27;;;;;;;8.45;3.25;;;15.10;99.90;;;;;;5031078;28;20040;-40
2023/05/05 02:05:54;;;;;;;4.75;2.78;;;15.00;99.90;;;;;;5030805;28;20056;-40
2023/05/05 02:08:22;;;;;;;3.55;2.85;;;15.10;99.90;;;;;;5031111;28;20037;-40
2023/05/05 02:10:48;;;;;;;4.38;3.15;;;15.10;99.90;;;;;;5031091;28;20741;-41
2023/05/05 02:13:15;;;;;;;4.72;3.03;;;15.10;99.90;;;;;;5031065;28;20025;-39
2023/05/05 02:15:42;;;;;;;3.20;2.90;;;15.00;99.90;;;;;;5030805;28;20116;-40
2023/05/05 02:18:09;;;;;;;3.10;2.72;;;15.00;99.90;;;;;;5030739;28;20120;-40
2023/05/05 02:20:37;;;;;;;3.30;2.75;;;15.00;99.90;;;;;;5031189;28;20037;-40
2023/05/05 02:23:05;;;;;;;3.38;3.00;;;15.00;99.90;;;;;;5031184;28;20080;-40
2023/05/05 02:25:42;;;;;;;4.75;3.03;;;15.00;99.90;;;;;;5030879;28;20025;-42
2023/05/05 02:28:19;;;;;;;2.92;2.63;;;15.00;99.90;;;;;;5030602;28;20025;-38
2023/05/05 02:30:51;;;;;;;4.55;2.83;;;15.00;99.90;;;;;;5030847;28;20022;-40
2023/05/05 02:33:20;;;;;;;3.42;3.08;;;15.00;99.90;;;;;;5030884;28;20041;-41
2023/05/05 02:35:47;;;;;;;3.83;3.03;;;15.00;99.90;;;;;;5030325;28;20044;-43
2023/05/05 02:38:16;;;;;;;3.33;3.03;;;15.00;99.90;;;;;;5030699;28;20103;-40
2023/05/05 02:40:45;;;;;;;3.72;2.92;;;15.00;99.90;;;;;;5030785;28;20427;-40
2023/05/05 02:43:15;;;;;;;3.00;2.63;;;15.00;99.90;;;;;;5030762;28;20022;-39
2023/05/05 02:45:41;;;;;;;5.30;2.95;;;15.00;99.90;;;;;;5030495;28;20029;-41
2023/05/05 02:48:06;;;;;;;3.25;2.92;;;15.00;99.90;;;;;;5030410;28;20045;-39
2023/05/05 02:50:32;;;;;;;4.30;2.85;;;15.00;99.90;;;;;;5030752;28;20411;-41
2023/05/05 02:52:59;;;;;;;3.88;2.95;;;15.00;99.90;;;;;;5030691;28;20410;-39
2023/05/05 02:55:50;;;;;;;6.20;2.88;;;15.00;99.90;;;;;;5030534;28;20037;-40
2023/05/05 02:58:29;;;;;;;3.95;2.80;;;15.00;99.90;;;;;;5030573;28;20025;-40
2023/05/05 03:01:21;;;;;;;3.45;2.92;;;15.00;99.90;;;;;;5030669;28;20022;-41
2023/05/05 03:03:53;;;;;;;4.60;2.95;;;15.00;99.90;;;;;;5030481;28;20079;-40
2023/05/05 03:06:21;;;;;;;3.40;3.10;;;15.00;99.90;;;;;;5033092;28;20029;-41
2023/05/05 03:09:12;;;;;;;4.78;2.83;;;15.00;99.90;;;;;;5034326;28;20029;-40
2023/05/05 03:11:39;;;;;;;2.83;2.40;;;15.00;99.90;;;;;;5034389;28;20013;-39
2023/05/05 03:14:08;;;;;;;2.90;2.47;;;15.00;99.90;;;;;;5034204;28;20466;-40
2023/05/05 03:16:35;;;;;;;3.28;2.90;;;15.00;99.90;;;;;;5033795;28;20475;-40
2023/05/05 03:19:03;;;;;;;3.55;2.72;;;15.00;99.90;;;;;;5034254;28;20035;-39
2023/05/05 03:21:29;;;;;;;3.53;2.90;;;15.00;99.90;;;;;;5034244;28;20022;-40
2023/05/05 03:23:55;;;;;;;7.43;2.50;;;15.00;99.90;;;;;;5034108;28;20029;-40
2023/05/05 03:26:21;;;;;;;4.28;2.92;;;15.00;99.90;;;;;;5033512;28;20030;-41
2023/05/05 03:28:46;;;;;;;3.08;2.53;;;15.00;99.90;;;;;;5034403;28;20032;-39
2023/05/05 03:31:12;;;;;;;3.08;2.70;;;15.00;99.90;;;;;;5032724;28;20060;-40
2023/05/05 03:33:38;;;;;;;3.35;2.65;;;15.00;99.90;;;;;;5033899;28;20021;-40
2023/05/05 03:36:04;;;;;;;5.97;2.85;;;15.00;99.90;;;;;;5033323;28;20036;-40
2023/05/05 03:38:29;;;;;;;4.70;2.90;;;15.00;99.90;;;;;;5033883;28;20041;-40
2023/05/05 03:40:55;;;;;;;4.13;3.20;;;15.00;99.90;;;;;;5033798;28;20036;-42
2023/05/05 03:43:21;;;;;;;7.82;3.92;;;15.00;99.90;;;;;;5034166;28;20281;-39
2023/05/05 03:45:46;;;;;;;6.78;4.22;;;15.00;99.90;;;;;;5033212;28;20483;-41
2023/05/05 03:48:12;;;;;;;5.70;3.95;;;15.00;99.90;;;;;;5033610;28;20021;-40
2023/05/05 03:50:38;;;;;;;5.13;3.63;;;15.00;99.90;;;;;;5033452;28;20562;-40
2023/05/05 03:53:03;;;;;;;6.35;3.78;;;15.00;99.90;;;;;;5033598;28;20026;-40
2023/05/05 03:55:29;;;;;;;4.53;3.45;;;15.00;99.90;;;;;;5033704;28;20502;-40
2023/05/05 03:57:55;;;;;;;5.47;2.92;;;15.00;99.90;;;;;;5032843;28;20022;-40
2023/05/05 04:00:20;;;;;;;8.05;3.35;;;15.00;99.90;;;;;;5033427;28;20017;-41
2023/05/05 04:02:46;;;;;;;3.63;3.20;;;15.00;99.90;;;;;;5033389;28;20504;-40
2023/05/05 04:05:12;;;;;;;4.60;2.55;;;15.00;99.90;;;;;;5031977;28;20494;-43
2023/05/05 04:07:37;;;;;;;3.75;3.10;;;15.00;99.90;;;;;;5032780;28;20025;-40
2023/05/05 04:10:03;;;;;;;3.80;2.95;;;15.00;99.90;;;;;;5033301;28;20108;-40
2023/05/05 04:12:29;;;;;;;3.60;3.03;;;15.00;99.90;;;;;;5033090;28;20052;-40
2023/05/05 04:14:54;;;;;;;4.15;3.33;;;15.00;99.90;;;;;;5033570;28;20057;-39
2023/05/05 04:17:20;;;;;;;3.70;2.90;;;15.00;99.90;;;;;;5032149;28;20029;-40
2023/05/05 04:19:46;;;;;;;4.68;2.78;;;15.00;99.90;;;;;;5033120;28;20469;-40
2023/05/05 04:22:11;;;;;;;8.43;2.90;;;15.00;99.90;;;;;;5033089;28;20108;-41
2023/05/05 04:24:37;;;;;;;4.72;3.05;;;15.00;99.90;;;;;;5032910;28;20040;-39
2023/05/05 04:27:02;;;;;;;4.38;2.85;;;15.00;99.90;;;;;;5032213;28;20095;-40
2023/05/05 04:29:28;;;;;;;4.68;2.83;;;15.00;99.90;;;;;;5032831;28;20044;-41
2023/05/05 04:31:54;;;;;;;5.13;2.95;;;15.00;99.90;;;;;;5032809;28;20109;-40
2023/05/05 04:34:21;;;;;;;3.80;2.95;;;15.00;99.90;;;;;;5032784;28;20530;-42
2023/05/05 04:36:46;;;;;;;3.25;2.95;;;15.00;99.90;;;;;;5032311;28;20479;-39
2023/05/05 04:39:12;;;;;;;4.07;2.80;;;14.90;99.90;;;;;;5032631;28;20040;-40
2023/05/05 04:41:37;;;;;;;3.05;2.75;;;15.00;99.90;;;;;;5032856;28;20113;-41
2023/05/05 04:44:03;;;;;;;3.15;2.78;;;15.00;99.90;;;;;;5032405;28;20056;-41
2023/05/05 04:46:29;;;;;;;3.70;2.58;;;15.00;99.90;;;;;;5031985;28;20025;-42
2023/05/05 04:48:57;;;;;;;3.90;3.10;;;15.00;99.90;;;;;;5032561;28;20505;-40
2023/05/05 04:51:22;;;;;;;3.67;2.67;;;15.00;99.90;;;;;;5032660;28;20057;-41
2023/05/05 04:53:48;;;;;;;4.55;2.90;;;15.00;99.90;;;;;;5032379;28;20056;-40
2023/05/05 04:56:14;;;;;;;4.07;3.00;;;15.00;99.90;;;;;;5031745;28;20026;-39
2023/05/05 04:58:40;;;;;;;5.47;3.30;;;15.00;99.90;;;;;;5032332;28;20026;-40
2023/05/05 05:01:05;;;;;;;4.32;3.20;;;15.00;99.90;;;;;;5032397;28;20417;-42
2023/05/05 05:03:31;;;;;;;5.70;3.65;;;15.00;99.90;;;;;;5032235;28;20033;-38
2023/05/05 05:05:56;;;;;;;3.95;3.40;;;15.00;99.90;;;;;;5031714;28;20397;-40
2023/05/05 05:08:22;;;;;;;7.68;3.65;;;15.00;99.90;;;;;;5031996;28;20041;-41
2023/05/05 05:10:48;;;;;;;3.78;3.17;;;15.10;99.90;;;;;;5032034;28;20104;-40
2023/05/05 05:13:14;;;;;;;5.10;4.00;;;15.00;99.90;;;;;;5031962;28;20034;-39
2023/05/05 05:15:39;;;;;;;6.82;3.45;;;15.00;99.90;;;;;;5031745;28;20025;-40
2023/05/05 05:18:05;;;;;;;4.82;3.45;;;15.00;99.90;;;;;;5031606;28;20029;-40
2023/05/05 05:20:31;;;;;;;4.47;3.28;;;15.00;99.90;;;;;;5031826;28;20025;-39
2023/05/05 05:22:56;;;;;;;4.95;3.50;;;15.00;99.90;;;;;;5031815;28;20033;-39
2023/05/05 05:25:23;;;;;;;3.97;3.45;;;15.00;99.90;;;;;;5031547;28;20410;-41
2023/05/05 05:27:48;;;;;;;5.15;3.28;;;15.00;99.90;;;;;;5030605;28;20033;-41
2023/05/05 05:30:14;;;;;;;3.55;3.10;;;15.00;99.90;;;;;;5031746;28;20029;-40
2023/05/05 05:32:40;;;;;;;4.18;3.25;;;15.00;99.90;;;;;;5031646;28;20022;-42
2023/05/05 05:35:06;;;;;;;4.22;2.90;;;15.00;99.90;;;;;;5031425;28;20029;-41
2023/05/05 05:37:33;;;;;;;4.78;3.00;;;15.00;99.90;;;;;;5031108;28;20029;-41
2023/05/05 05:39:59;;;;;;;5.88;3.38;;;15.00;99.90;;;;;;5031413;28;20060;-39
2023/05/05 05:42:24;;;;;;;3.92;2.90;;;15.00;99.90;;;;;;5031444;28;20029;-41
2023/05/05 05:44:50;;;;;;;6.47;3.20;;;15.00;99.90;;;;;;5031387;28;20509;-40
2023/05/05 05:47:15;;;;;;;4.70;3.10;;;15.00;99.90;;;;;;5030847;28;20117;-40
2023/05/05 05:49:41;;;;;;;7.70;3.30;;;15.00;99.90;;;;;;5031396;28;20132;-40
2023/05/05 05:52:07;;;;;;;5.88;3.28;;;15.00;99.90;;;;;;5031294;28;20100;-38
2023/05/05 05:54:34;;;;;;;3.95;3.03;;;15.00;99.90;;;;;;5031152;28;20475;-41
2023/05/05 05:57:01;;;;;;;8.18;3.00;;;15.00;99.90;;;;;;5030765;28;20114;-40
2023/05/05 05:59:27;;;;;;;4.72;3.03;;;15.00;99.90;;;;;;5031314;28;20029;-40
2023/05/05 06:01:54;;;;;;;3.58;2.92;;;15.00;99.90;;;;;;5031538;28;20033;-39
2023/05/05 06:04:19;;;;;;;4.82;2.97;;;15.00;99.90;;;;;;5031146;28;20055;-40
2023/05/05 06:06:45;;;;;;;3.45;2.67;;;15.00;99.90;;;;;;5030528;28;20029;-41
2023/05/05 06:09:10;;;;;;;4.03;3.13;;;15.00;99.90;;;;;;5031110;28;20100;-40
2023/05/05 06:11:36;;;;;;;3.30;2.72;;;15.00;99.90;;;;;;5031086;28;20030;-40
2023/05/05 06:14:02;;;;;;;4.10;2.78;;;15.00;99.90;;;;;;5031019;28;20032;-40
2023/05/05 06:16:27;;;;;;;4.10;2.70;;;15.10;99.90;;;;;;5030660;28;20025;-41
2023/05/05 06:18:53;;;;;;;4.90;2.97;;;15.10;99.90;;;;;;5030952;28;20108;-40
2023/05/05 06:21:19;;;;;;;3.83;2.88;;;15.10;99.90;;;;;;5031034;28;20030;-41
2023/05/05 06:23:46;;;;;;;4.60;2.83;;;15.10;99.90;;;;;;5030878;28;20021;-40
2023/05/05 06:26:11;;;;;;;3.25;2.70;;;15.10;99.90;;;;;;5030312;28;20031;-41
2023/05/05 06:28:38;;;;;;;3.78;2.80;;;15.10;99.90;;;;;;5030915;28;20034;-40
2023/05/05 06:31:03;;;;;;;5.55;2.75;;;15.10;99.90;;;;;;5030850;28;20030;-40
2023/05/05 06:33:29;;;;;;;3.17;2.58;;;15.10;99.90;;;;;;5030870;28;20467;-41
2023/05/05 06:35:55;;;;;;;6.22;2.80;;;15.10;99.90;;;;;;5030148;28;20038;-39
2023/05/05 06:38:20;;;;;;;4.78;2.70;;;15.10;99.90;;;;;;5030606;28;20022;-40
2023/05/05 06:40:48;;;;;;;6.68;3.15;;;15.10;99.90;;;;;;5034770;28;20486;-40
2023/05/05 06:43:14;;;;;;;3.90;3.28;;;15.10;99.90;;;;;;5034831;28;20529;-41
2023/05/05 06:45:39;;;;;;;4.18;2.92;;;15.20;99.90;;;;;;5034588;28;20071;-40
2023/05/05 06:48:05;;;;;;;7.10;3.92;;;15.10;99.90;;;;;;5034657;28;20033;-42
2023/05/05 06:50:31;;;;;;;4.13;2.97;;;15.20;99.90;;;;;;5034673;28;20022;-40
2023/05/05 06:52:56;;;;;;;4.03;2.80;;;15.20;99.90;;;;;;5034506;28;20033;-40
2023/05/05 06:55:22;;;;;;;7.25;3.15;;;15.20;99.90;;;;;;5034513;28;20025;-39
2023/05/05 06:57:48;;;;;;;5.05;3.10;;;15.20;99.90;;;;;;5032796;28;20486;-38
2023/05/05 07:00:15;;;;;;;6.28;3.28;;;15.20;99.90;;;;;;5034765;28;20465;-41
2023/05/05 07:02:41;;;;;;;4.28;3.20;;;15.20;99.90;;;;;;5034508;28;20017;-40
2023/05/05 07:05:07;;;;;;;4.68;3.10;;;15.10;99.90;;;;;;5034461;28;20479;-40
2023/05/05 07:07:32;;;;;;;5.60;3.28;;;15.20;99.90;;;;;;5033671;28;20592;-40
2023/05/05 07:09:58;;;;;;;5.70;3.10;;;15.20;99.90;;;;;;5034311;28;20027;-40
2023/05/05 07:12:23;;;;;;;5.05;2.78;;;15.20;99.90;;;;;;5034227;28;20044;-41
2023/05/05 07:14:49;;;;;;;4.75;2.67;;;15.20;99.90;;;;;;5034378;28;20025;-41
2023/05/05 07:17:15;;;;;;;4.97;2.85;;;15.20;99.90;;;;;;5033750;28;20068;-41
2023/05/05 07:19:40;;;;;;;4.43;3.22;;;15.20;99.90;;;;;;5034274;28;20508;-44
2023/05/05 07:22:06;;;;;;;3.40;2.67;;;15.20;99.90;;;;;;5034184;28;20471;-40
2023/05/05 07:24:31;;;;;;;4.70;2.80;;;15.20;99.90;;;;;;5034093;28;20033;-40
2023/05/05 07:26:58;;;;;;;6.32;2.63;;;15.20;99.90;;;;;;5033439;28;20025;-42
2023/05/05 07:29:23;;;;;;;4.47;2.90;;;15.20;99.90;;;;;;5033954;28;20044;-41
2023/05/05 07:31:49;;;;;;;4.07;2.45;;;15.20;99.90;;;;;;5033926;28;20060;-41
2023/05/05 07:34:14;;;;;;;5.82;2.58;;;15.20;99.90;;;;;;5074384;22;20041;-43
2023/05/05 07:36:40;;;;;;;4.05;2.92;;;15.20;99.90;;;;;;5033449;28;20045;-46
2023/05/05 07:39:06;;;;;;;3.38;2.78;;;15.20;99.90;;;;;;5033812;28;20091;-44
2023/05/05 07:41:32;;;;;;;3.65;2.58;;;15.20;99.90;;;;;;5033815;28;20452;-41
2023/05/05 07:43:59;;;;;;;3.72;3.10;;;15.20;99.90;;;;;;5033715;28;20074;-42
2023/05/05 07:46:25;;;;;;;4.35;3.10;;;15.20;99.90;;;;;;5033149;28;20390;-42
2023/05/05 07:48:51;;;;;;;3.17;2.45;;;15.20;99.90;;;;;;5034201;28;20017;-42
2023/05/05 07:51:16;;;;;;;5.20;2.67;;;15.20;99.90;;;;;;5032799;28;20498;-43
2023/05/05 07:53:42;;;;;;;4.38;2.60;;;15.20;99.90;;;;;;5033745;28;20021;-41
2023/05/05 07:56:08;;;;;;;3.30;2.50;;;15.20;99.90;;;;;;5033008;28;20021;-41
2023/05/05 07:58:33;;;;;;;3.15;2.35;;;15.20;99.90;;;;;;5033563;28;20376;-41
2023/05/05 08:01:00;;;;;;;4.28;2.50;;;15.20;99.90;;;;;;5033411;28;20363;-43
2023/05/05 08:03:25;;;;;;;4.45;2.80;;;15.20;99.90;;;;;;5033418;28;20025;-42
2023/05/05 08:05:53;;;;;;;3.63;2.65;;;15.20;99.90;;;;;;5032987;28;20025;-43
2023/05/05 08:08:23;;;;;;;3.67;2.55;;;15.20;99.90;;;;;;5033098;28;20025;-41
2023/05/05 08:10:49;;;;;;;7.43;2.25;;;15.20;99.90;;;;;;5033218;28;20421;-42
2023/05/05 08:13:15;;;;;;;3.28;2.53;;;15.20;99.90;;;;;;5033350;28;20019;-41
2023/05/05 08:15:41;;;;;;;4.32;2.10;;;15.20;99.90;;;;;;5032894;28;20030;-41
2023/05/05 08:18:06;;;;;;;3.25;2.45;;;15.20;99.90;;;;;;5032976;28;20025;-42
2023/05/05 08:20:32;;;;;;;3.80;2.40;;;15.20;99.90;;;;;;5033149;28;20021;-45
2023/05/05 08:22:58;;;;;;;3.50;2.67;;;15.20;99.90;;;;;;5033094;28;20075;-43
2023/05/05 08:25:25;;;;;;;4.03;2.40;;;15.20;99.90;;;;;;5032942;28;20528;-42
2023/05/05 08:27:51;;;;;;;4.22;2.83;;;15.20;99.90;;;;;;5032286;28;20029;-41
2023/05/05 08:30:19;;;;;;;3.67;2.47;;;15.20;99.90;;;;;;5032909;28;20033;-43
2023/05/05 08:32:45;;;;;;;5.10;3.08;;;15.20;99.90;;;;;;5032847;28;20076;-44
2023/05/05 08:35:11;;;;;;;4.45;2.53;;;15.20;99.90;;;;;;5032524;28;20112;-42
2023/05/05 08:37:37;;;;;;;3.67;2.70;;;15.20;99.90;;;;;;5032149;28;20104;-43
2023/05/05 08:40:03;;;;;;;6.40;2.63;;;15.20;99.90;;;;;;5032715;28;20083;-42
2023/05/05 08:42:30;;;;;;;2.95;2.45;;;15.20;99.90;;;;;;5032660;28;20394;-42
2023/05/05 08:44:55;;;;;;;3.35;2.40;;;15.20;99.90;;;;;;5032436;28;20025;-43
2023/05/05 08:47:21;;;;;;;3.33;2.42;;;15.20;99.90;;;;;;5032013;28;20038;-42
2023/05/05 08:49:47;;;;;;;2.88;2.38;;;15.20;99.90;;;;;;5032631;28;20443;-43
2023/05/05 08:52:17;;;;;;;3.72;2.60;;;15.30;99.90;;;;;;5032506;28;20398;-47
2023/05/05 08:54:54;;;;;;;3.70;2.40;;;15.30;99.90;;;;;;5032437;28;20108;-42
2023/05/05 08:57:27;;;;;;;4.20;2.40;;;15.30;99.90;;;;;;5031726;28;20033;-46
2023/05/05 08:59:53;;;;;;;3.58;2.53;;;15.20;99.90;;;;;;5032274;28;20025;-47
2023/05/05 09:02:22;;;;;;;3.08;2.30;;;15.30;99.90;;;;;;5032241;28;20343;-49
2023/05/05 09:04:50;;;;;;;3.55;2.30;;;15.20;99.90;;;;;;5032232;28;20029;-45
2023/05/05 09:07:16;;;;;;;3.58;2.53;;;15.20;99.90;;;;;;5031523;28;20030;-45
2023/05/05 09:09:42;;;;;;;3.67;2.53;;;15.20;99.90;;;;;;5031966;28;20037;-43
2023/05/05 09:12:07;;;;;;;3.08;2.25;;;15.20;99.90;;;;;;5031964;28;20021;-43
2023/05/05 09:14:33;;;;;;;3.40;2.42;;;15.20;99.90;;;;;;5031804;28;20499;-45
2023/05/05 09:16:59;;;;;;;3.60;2.35;;;15.30;99.90;;;;;;5031391;28;20036;-44
2023/05/05 09:19:24;;;;;;;5.30;2.50;;;15.30;99.90;;;;;;5031856;28;20470;-42
2023/05/05 09:21:50;;;;;;;2.97;2.13;;;15.30;99.90;;;;;;5031833;28;20111;-44
2023/05/05 09:24:16;;;;;;;5.38;2.50;;;15.30;99.90;;;;;;5031700;28;20052;-42
2023/05/05 09:26:44;;;;;;;2.92;2.30;;;15.30;99.90;;;;;;5031123;28;20104;-44
2023/05/05 09:29:19;;;;;;;4.57;2.20;;;15.30;99.90;;;;;;5031693;28;20541;-43
2023/05/05 09:32:09;;;;;;;4.03;2.28;;;15.20;99.90;;;;;;5031689;28;20036;-45
2023/05/05 09:34:36;;;;;;;3.53;2.50;;;15.30;99.90;;;;;;5031483;28;20490;-47
2023/05/05 09:37:02;;;;;;;5.05;2.55;;;15.30;99.90;;;;;;5030903;28;20421;-45
2023/05/05 09:39:27;;;;;;;5.10;2.55;;;15.30;99.90;;;;;;5031605;28;20021;-45
2023/05/05 09:41:53;;;;;;;3.05;2.20;;;15.30;99.90;;;;;;5031517;28;20033;-46
2023/05/05 09:44:36;;;;;;;4.47;2.20;;;15.30;99.90;;;;;;5031514;28;20108;-44
2023/05/05 09:47:02;;;;;;;2.90;2.22;;;15.30;99.90;;;;;;5029712;28;20026;-47
2023/05/05 09:49:28;;;;;;;4.35;2.45;;;15.30;99.90;;;;;;5031350;28;20039;-43
2023/05/05 09:51:54;;;;;;;3.42;2.35;;;15.30;99.90;;;;;;5031355;28;20393;-43
2023/05/05 09:54:27;;;;;;;3.97;2.47;;;15.30;99.90;;;;;;5031243;28;20037;-44
2023/05/05 09:56:55;;;;;;;3.33;2.40;;;15.30;99.90;;;;;;5030931;28;20137;-42
2023/05/05 09:59:21;;;;;;;4.43;2.50;;;15.30;99.90;;;;;;5031258;28;20029;-42
2023/05/05 10:01:48;;;;;;;3.40;2.40;;;15.30;99.90;;;;;;5031307;28;20032;-43
2023/05/05 10:04:30;;;;;;;3.63;2.22;;;15.30;99.90;;;;;;5031004;28;20506;-46
2023/05/05 10:06:57;;;;;;;2.80;2.05;;;15.30;99.90;;;;;;5030595;28;20034;-42
2023/05/05 10:09:24;;;;;;;3.22;2.40;;;15.30;99.90;;;;;;5031335;28;20394;-42
2023/05/05 10:11:50;;;;;;;4.82;2.35;;;15.30;99.90;;;;;;5031139;28;20048;-45
2023/05/05 10:14:17;;;;;;;2.92;2.13;;;15.30;99.90;;;;;;5030595;28;20471;-42
2023/05/05 10:16:49;;;;;;;2.97;2.10;;;15.30;99.90;;;;;;5030547;28;20021;-48
2023/05/05 10:19:17;;;;;;;3.97;2.20;;;15.30;99.90;;;;;;5030964;28;20044;-43
2023/05/05 10:21:50;;;;;;;2.60;2.10;;;15.30;99.90;;;;;;5031087;28;20033;-45
2023/05/05 10:24:33;;;;;;;3.92;2.08;;;15.30;99.90;;;;;;5030981;28;20059;-45
2023/05/05 10:27:02;;;;;;;2.30;2.08;;;15.30;99.90;;;;;;5030303;28;20092;-45
2023/05/05 10:29:50;;;;;;;3.53;2.35;;;15.30;99.90;;;;;;5029686;28;20079;-46
2023/05/05 10:32:28;;;;;;;2.90;2.17;;;15.30;99.90;;;;;;5030918;28;20521;-44
2023/05/05 10:35:00;;;;;;;3.33;2.30;;;15.30;99.90;;;;;;5030773;28;20029;-46
2023/05/05 10:37:26;;;;;;;3.10;2.35;;;15.30;99.90;;;;;;5030854;28;20057;-46
2023/05/05 10:39:54;;;;;;;2.75;2.17;;;15.30;99.90;;;;;;5029675;28;20490;-43
2023/05/05 10:42:21;;;;;;;4.45;2.53;;;15.30;99.90;;;;;;5030803;28;20043;-42
2023/05/05 10:44:48;;;;;;;4.18;2.38;;;15.30;99.90;;;;;;5030752;28;20026;-42
2023/05/05 10:47:15;;;;;;;3.88;2.60;;;15.30;99.90;;;;;;5030116;28;20441;-43
2023/05/05 10:49:52;;;;;;;4.18;2.33;;;15.30;99.90;;;;;;5029599;28;20056;-42
2023/05/05 10:52:35;;;;;;;4.57;2.45;;;15.30;99.90;;;;;;5030808;28;20124;-42
2023/05/05 10:55:11;;;;;;;2.78;2.15;;;15.30;99.90;;;;;;5030665;28;20030;-42
2023/05/05 10:57:41;;;;;;;3.90;2.50;;;15.30;99.90;;;;;;5030201;28;20053;-42
2023/05/05 11:00:08;;;;;;;4.78;2.30;;;15.30;99.90;;;;;;5030556;28;20332;-47
2023/05/05 11:02:34;;;;;;;2.60;2.20;;;15.30;99.90;;;;;;5030523;28;20457;-43
2023/05/05 11:05:20;;;;;;;2.95;2.20;;;15.30;99.90;;;;;;5030495;28;20493;-42
2023/05/05 11:07:50;;;;;;;4.40;2.35;;;15.40;99.90;;;;;;5030015;28;20036;-43
2023/05/05 11:10:22;;;;;;;5.10;2.30;;;15.40;99.90;;;;;;5030688;28;20033;-43
2023/05/05 11:12:50;;;;;;;3.22;2.33;;;15.40;99.90;;;;;;5030665;28;20132;-42
2023/05/05 11:15:28;;;;;;;2.72;2.10;;;15.40;99.90;;;;;;5030474;28;20033;-44
2023/05/05 11:17:56;;;;;;;2.75;1.88;;;15.40;99.90;;;;;;5030039;28;20031;-46
2023/05/05 11:20:34;;;;;;;3.83;2.15;;;15.40;99.90;;;;;;5029213;28;20025;-44
2023/05/05 11:23:03;;;;;;;4.50;2.20;;;15.40;99.90;;;;;;5030955;28;20108;-43
2023/05/05 11:25:35;;;;;;;2.13;1.80;;;15.50;99.90;;;;;;5030474;28;20041;-44
2023/05/05 11:28:16;;;;;;;2.88;2.20;;;15.50;99.90;;;;;;5033483;28;20036;-43
2023/05/05 11:30:57;;;;;;;4.00;2.03;;;15.50;99.90;;;;;;5032754;28;20032;-44
2023/05/05 11:33:36;;;;;;;3.28;1.83;;;15.50;99.90;;;;;;5033934;28;20025;-44
2023/05/05 11:36:06;;;;;;;2.70;2.20;;;15.50;99.90;;;;;;5033373;28;20033;-43
2023/05/05 11:38:35;;;;;;;4.43;1.85;;;15.50;99.90;;;;;;5034052;28;20026;-44
2023/05/05 11:41:30;;;;;;;2.13;1.75;;;15.60;99.90;;;;;;5033958;28;20488;-43
2023/05/05 11:44:19;;;;;;;2.45;1.90;;;15.50;99.90;;;;;;5033682;28;20025;-43
2023/05/05 11:46:50;;;;;;;3.60;1.75;;;15.50;99.90;;;;;;5033154;28;20516;-44
2023/05/05 11:49:45;;;;;;;2.90;1.60;;;15.50;99.90;;;;;;5033570;28;20041;-44
2023/05/05 11:52:11;;;;;;;;;;;15.60;99.90;;;;;;5021185;28;20437;-43
2023/05/05 11:54:49;;;;;;;2.47;2.00;;;15.60;99.90;;;;;;5033490;28;19928;-44
2023/05/05 11:57:22;;;;;;;3.08;1.90;;;15.60;99.90;;;;;;5033306;28;20104;-45
2023/05/05 12:00:00;;;;;;;3.47;2.03;;;15.60;99.90;;;;;;5033524;28;20036;-44
2023/05/05 12:02:28;;;;;;;2.08;1.75;;;15.60;99.90;;;;;;5033353;28;20029;-47
2023/05/05 12:04:55;;;;;;;2.28;1.80;;;15.60;99.90;;;;;;5033254;28;20030;-45
2023/05/05 12:07:25;;;;;;;2.38;1.83;;;15.60;99.90;;;;;;5032801;28;20052;-43
2023/05/05 12:09:52;;;;;;;2.08;1.65;;;15.60;99.90;;;;;;5033343;28;20112;-44
2023/05/05 12:12:18;;;;;;;2.47;1.85;;;15.60;99.90;;;;;;5033271;28;20022;-44
2023/05/05 12:14:51;;;;;;;4.85;1.67;;;15.60;99.90;;;;;;5033097;28;20021;-44
2023/05/05 12:17:18;;;;;;;2.58;1.85;;;15.60;99.90;;;;;;5032533;28;20087;-44
2023/05/05 12:19:52;;;;;;;2.60;1.85;;;15.60;99.90;;;;;;5033355;28;20049;-46
2023/05/05 12:22:24;;;;;;;3.03;1.83;;;15.60;99.90;;;;;;5033094;28;20059;-42
2023/05/05 12:25:01;;;;;;;5.65;2.03;;;15.60;99.90;;;;;;5033165;28;20032;-43
2023/05/05 12:27:27;;;;;;;2.72;1.90;;;15.60;99.90;;;;;;5032407;28;20071;-44
2023/05/05 12:29:55;;;;;;;2.70;1.70;;;15.60;99.90;;;;;;5032838;28;20018;-43
2023/05/05 12:32:28;;;;;;;2.33;1.75;;;15.60;99.90;;;;;;5032865;28;20025;-43
2023/05/05 12:34:58;;;;;;;3.87;1.97;;;15.60;99.90;;;;;;5032752;28;20029;-43
2023/05/05 12:37:25;;;;;;;3.72;1.70;;;15.60;99.90;;;;;;5031892;28;20035;-45
2023/05/05 12:39:53;;;;;;;5.90;1.70;;;15.60;99.90;;;;;;5032629;28;20026;-44
2023/05/05 12:42:20;;;;;;;2.25;1.60;;;15.60;99.90;;;;;;5032567;28;20487;-43
2023/05/05 12:44:45;;;;;;;2.60;1.75;;;15.60;99.90;;;;;;5032475;28;20037;-44
2023/05/05 12:47:12;;;;;;;3.03;1.77;;;15.60;99.90;;;;;;5031898;28;20033;-45
2023/05/05 12:49:50;;;;;;;3.05;1.70;;;15.60;99.90;;;;;;5032503;28;20028;-44
2023/05/05 12:52:17;;;;;;;1.95;1.50;;;15.60;99.90;;;;;;5032424;28;20033;-43
2023/05/05 12:54:57;;;;;;;2.58;1.73;;;15.60;99.90;;;;;;5032319;28;20021;-45